Conway, MI (49722)

4:04 AM EDT on April 18, 2015 (GMT -0400)
Markspm | | Change Station
CLOSE
Current Station
Personal Weather Station
Location: Harbor Springs, MI
Elevation: 745 ft
Nearby Weather Stations

Elev 745 ft 45.43 °N, 84.91 °W | Updated 1 minute ago

Clear
Clear
34.2 °F
Feels Like 34 °F
N
0.0
Wind Variable Wind from SE
Gusts 2.0 mph

Today
High -- | Low -- °F
--% Chance of Precip.
Yesterday
High -- | Low -- °F
Precip. -- in
6:49 AM 8:29 PM
Waning Crescent, 0% visible
Pressure 29.96 in
Visibility 10.0 miles
Clouds Clear
Windchill 34 °F
Dew Point 30 °F
Humidity 83%
Rainfall 0.00 in
Snow Depth Not available.
UV 0 out of 12
Pollen 10.30 out of 12
Air Quality Not available.
Flu Activity Regional
METAR KMGN 180755Z AUTO 00000KT 10SM CLR 03/00 A2996 RMK AO2 T00311006

More Conditions Fewer Conditions

Pressure 29.96 in
Visibility 10.0 miles
Clouds Clear
Windchill 34 °F
Dew Point 30 °F
Humidity 83%
Rainfall 0.00 in
Snow Depth Not available.
UV 0 out of 12
Pollen 10.30 out of 12
Air Quality Not available.
Flu Activity Regional
METAR KMGN 180755Z AUTO 00000KT 10SM CLR 03/00 A2996 RMK AO2 T00311006

More Conditions Fewer Conditions

Nowcast | as of 4:00 am EDT on April 18, 2015

At 5 am...clear. Temperature 39. Northwest winds 5 mph. At 7 am...clear. Temperature 39. North winds 7 mph. At 9 am...clear. Temperature 43. Northeast winds 8 mph. At 11 am...clear. Temperature 50. Northeast winds 9 mph.

×

10-Day Weather Forecast

Almanac

Astronomy

Apr. 18, 2015 Rise Set
Actual Time
Civil Twilight
Nautical Twilight
Astronomical Twilight
Moon
Length of Visible Light
Length of Day
Tomorrow will be .
, % of the Moon is Illuminated

Today's Extremes

State Highs State Lows

Community

WunderPhotos

Upload Photos

1,814,345 photos uploaded!

WunderBlogs® & News

Nearby

Air Quality

  Air Quality AQ Index Pollutant
Not available.

Snow Depth

Station Depth Elevation

Earthquake Activity

City Distance Mag. Time & Date
Minimum magnitude displayed is 2.5.

Coastal Water Temperatures

Place Temperature

Stations

Nearby Weather Stations

Station Location Temp. Windchill Dew Point Humidity Wind Precip. Elev Updated Type